Time;durP1;ratioP1;P1;durP2;ratioP2;P2;SDS_P1;SDS_P2;PMS_P1;PMS_P2;Temp;Humidity;BMP_temperature;BMP_pressure;BME280_temperature;BME280_humidity;BME280_pressure;Samples;Min_cycle;Max_cycle;Signal;HPM_P1;HPM_P2
2022/07/25 00:01:38;;;;;;;4.50;3.70;;;;;;;18.80;88.54;101153.25;5075617;28;20374;-71
2022/07/25 00:04:04;;;;;;;6.80;4.38;;;;;;;18.81;89.54;101146.84;5076646;28;20037;-71
2022/07/25 00:06:29;;;;;;;5.43;4.00;;;;;;;18.83;89.32;101143.97;5075037;28;20066;-71
2022/07/25 00:08:55;;;;;;;6.00;4.13;;;;;;;18.82;89.26;101142.28;5076360;28;20051;-71
2022/07/25 00:11:20;;;;;;;8.90;4.50;;;;;;;18.81;90.10;101137.91;5076095;28;20064;-71
2022/07/25 00:13:45;;;;;;;5.88;4.00;;;;;;;18.82;89.94;101143.13;5076448;28;20059;-70
2022/07/25 00:16:11;;;;;;;4.95;4.07;;;;;;;18.83;89.77;101138.56;5075755;28;20497;-71
2022/07/25 00:18:36;;;;;;;5.25;3.90;;;;;;;18.88;90.84;101135.34;5076446;28;20409;-71
2022/07/25 00:21:02;;;;;;;8.43;4.15;;;;;;;18.88;90.30;101121.88;5076007;28;20046;-71
2022/07/25 00:23:27;;;;;;;8.70;4.40;;;;;;;18.90;91.20;101122.50;5075886;28;20029;-71
2022/07/25 00:25:52;;;;;;;7.05;4.32;;;;;;;18.92;91.99;101118.59;5076091;28;20040;-71
2022/07/25 00:28:18;;;;;;;5.00;4.05;;;;;;;18.93;91.68;101125.69;5076214;28;20059;-72
2022/07/25 00:30:43;;;;;;;10.20;4.40;;;;;;;18.91;92.33;101118.78;5075446;28;20035;-71
2022/07/25 00:33:08;;;;;;;7.70;4.30;;;;;;;18.87;91.77;101121.03;5075723;28;20442;-70
2022/07/25 00:35:34;;;;;;;6.28;4.03;;;;;;;18.84;91.93;101116.00;5075588;28;20032;-72
2022/07/25 00:37:59;;;;;;;5.55;4.45;;;;;;;18.81;91.38;101110.94;5075936;28;20382;-70
2022/07/25 00:40:25;;;;;;;4.70;4.03;;;;;;;18.80;92.07;101102.03;5075918;28;20032;-71
2022/07/25 00:42:50;;;;;;;6.00;4.68;;;;;;;18.80;92.60;101102.03;5074439;28;20117;-71
2022/07/25 00:45:15;;;;;;;6.85;4.53;;;;;;;18.81;92.50;101098.31;5075619;28;20033;-71
2022/07/25 00:47:41;;;;;;;6.32;4.55;;;;;;;18.84;93.84;101100.66;5075764;28;20067;-71
2022/07/25 00:50:07;;;;;;;6.25;4.40;;;;;;;18.81;92.96;101090.25;5075417;28;20041;-71
2022/07/25 00:52:33;;;;;;;4.65;4.10;;;;;;;18.84;93.55;101089.03;5075341;28;20033;-71
2022/07/25 00:54:59;;;;;;;9.35;4.65;;;;;;;18.83;93.53;101079.28;5074051;28;20032;-71
2022/07/25 00:57:24;;;;;;;7.60;4.32;;;;;;;18.83;94.02;101074.72;5075387;28;20359;-71
2022/07/25 00:59:49;;;;;;;6.95;4.13;;;;;;;18.83;94.53;101069.31;5075686;28;20037;-70
2022/07/25 01:02:15;;;;;;;6.63;4.32;;;;;;;18.82;94.18;101064.97;5074495;28;20123;-71
2022/07/25 01:04:40;;;;;;;7.40;4.20;;;;;;;18.82;94.83;101058.72;5074911;28;20036;-70
2022/07/25 01:07:06;;;;;;;10.32;4.45;;;;;;;18.80;95.20;101067.00;5075456;28;20047;-72
2022/07/25 01:09:32;;;;;;;8.82;4.68;;;;;;;18.81;95.46;101070.50;5075128;28;20107;-70
2022/07/25 01:11:57;;;;;;;7.82;4.32;;;;;;;18.77;95.68;101071.94;5075484;28;20035;-70
2022/07/25 01:14:23;;;;;;;10.82;5.28;;;;;;;18.77;96.33;101069.25;5075596;28;20033;-71
2022/07/25 01:16:48;;;;;;;6.90;4.72;;;;;;;18.78;96.18;101068.19;5075037;28;20028;-71
2022/07/25 01:19:14;;;;;;;6.47;4.78;;;;;;;18.77;95.91;101067.38;5074972;28;20056;-70
2022/07/25 01:21:41;;;;;;;6.72;4.90;;;;;;;18.76;97.03;101057.59;5074872;28;20025;-70
2022/07/25 01:24:07;;;;;;;8.68;4.63;;;;;;;18.75;96.51;101055.09;5074894;28;20043;-71
2022/07/25 01:26:32;;;;;;;7.13;4.45;;;;;;;18.72;97.05;101056.34;5073372;28;20119;-70
2022/07/25 01:28:58;;;;;;;7.70;5.22;;;;;;;18.68;97.19;101045.06;5073345;28;20039;-70
2022/07/25 01:31:24;;;;;;;7.22;4.35;;;;;;;18.66;98.26;101041.75;5075325;28;20029;-70
2022/07/25 01:33:50;;;;;;;10.60;4.90;;;;;;;18.63;98.51;101036.72;5075128;28;20109;-70
2022/07/25 01:36:15;;;;;;;5.28;4.40;;;;;;;18.60;98.30;101025.47;5074677;28;20367;-71
2022/07/25 01:38:40;;;;;;;8.13;4.47;;;;;;;18.58;98.61;101022.97;5074234;28;20441;-71
2022/07/25 01:41:06;;;;;;;5.93;4.35;;;;;;;18.58;99.00;101027.53;5074580;28;20028;-70
2022/07/25 01:43:31;;;;;;;7.72;4.40;;;;;;;18.60;99.59;101028.16;5075806;28;20079;-71
2022/07/25 01:45:56;;;;;;;8.55;4.85;;;;;;;18.58;99.60;101014.88;5075283;28;20032;-71
2022/07/25 01:48:22;;;;;;;7.80;4.65;;;;;;;18.59;100.00;101016.56;5074796;28;20538;-70
2022/07/25 01:50:47;;;;;;;9.35;4.95;;;;;;;18.58;100.00;101028.34;5074596;28;20415;-71
2022/07/25 01:53:13;;;;;;;10.65;4.50;;;;;;;18.58;100.00;101028.34;5074035;28;20415;-70
2022/07/25 01:55:38;;;;;;;15.95;4.45;;;;;;;18.58;100.00;101025.66;5073930;28;20036;-71
2022/07/25 01:58:03;;;;;;;6.60;4.15;;;;;;;18.58;99.84;101014.88;5075114;28;20111;-70
2022/07/25 02:00:29;;;;;;;7.07;4.15;;;;;;;18.62;99.93;101002.72;5073848;28;20081;-70
2022/07/25 02:05:51;;;;;;;10.07;4.60;;;;;;;18.69;99.35;101000.13;5061385;28;20040;-70
2022/07/25 02:08:17;;;;;;;7.72;4.32;;;;;;;18.70;98.94;100991.00;5073965;28;20466;-71
2022/07/25 02:10:42;;;;;;;9.45;4.70;;;;;;;18.72;98.55;101004.28;5073927;28;20028;-70
2022/07/25 02:13:07;;;;;;;7.28;5.00;;;;;;;18.73;98.17;101006.78;5072163;28;20045;-70
2022/07/25 02:15:34;;;;;;;8.50;5.05;;;;;;;18.71;98.70;100997.22;5073754;28;20060;-71
2022/07/25 02:17:59;;;;;;;12.23;4.60;;;;;;;18.68;97.95;100996.56;5073568;28;20401;-69
2022/07/25 02:20:25;;;;;;;11.20;5.22;;;;;;;18.67;97.76;100994.91;5072637;28;20094;-70
2022/07/25 02:22:50;;;;;;;7.20;4.57;;;;;;;18.66;98.03;100993.25;5073607;28;20028;-70
2022/07/25 02:25:15;;;;;;;9.27;4.85;;;;;;;18.63;97.70;100985.53;5074085;28;20044;-70
2022/07/25 02:27:41;;;;;;;11.05;4.50;;;;;;;18.58;97.18;100977.16;5074489;28;20039;-70
2022/07/25 02:30:07;;;;;;;12.13;4.72;;;;;;;18.56;97.26;100981.91;5073669;28;20029;-70
2022/07/25 02:32:33;;;;;;;6.55;4.68;;;;;;;18.52;97.08;100982.47;5073552;28;20067;-71
2022/07/25 02:34:58;;;;;;;7.80;5.05;;;;;;;18.49;96.32;100983.69;5071831;28;20056;-71
2022/07/25 02:37:24;;;;;;;12.25;5.93;;;;;;;18.45;96.29;100983.25;5074095;28;20277;-70
2022/07/25 02:39:49;;;;;;;6.88;5.20;;;;;;;18.42;95.75;100977.38;5073051;28;20404;-70
2022/07/25 02:42:15;;;;;;;9.50;4.90;;;;;;;18.40;95.20;100988.34;5072573;28;20032;-70
2022/07/25 02:44:40;;;;;;;8.38;5.03;;;;;;;18.38;95.04;100968.03;5073233;28;20105;-71
2022/07/25 02:47:06;;;;;;;8.85;4.85;;;;;;;18.36;95.21;100980.81;5073305;28;20035;-71
2022/07/25 02:49:31;;;;;;;6.30;4.60;;;;;;;18.33;95.42;100974.78;5073216;28;20032;-70
2022/07/25 02:51:56;;;;;;;6.03;4.40;;;;;;;18.33;94.98;100982.03;5073130;28;20466;-70
2022/07/25 02:54:22;;;;;;;5.85;4.43;;;;;;;18.36;94.47;100981.66;5073204;28;20386;-70
2022/07/25 02:56:47;;;;;;;8.75;4.95;;;;;;;18.41;93.93;100975.72;5073584;28;20439;-70
2022/07/25 02:59:12;;;;;;;11.57;4.80;;;;;;;18.43;93.19;100971.78;5073047;28;20033;-70
2022/07/25 03:01:38;;;;;;;11.02;4.75;;;;;;;18.46;92.99;100981.38;5072718;28;20040;-71
2022/07/25 03:04:03;;;;;;;5.43;4.47;;;;;;;18.48;92.59;100976.63;5072971;28;20040;-70
2022/07/25 03:06:29;;;;;;;5.85;4.82;;;;;;;18.49;92.39;100971.03;5072944;28;20029;-70
2022/07/25 03:08:54;;;;;;;7.75;4.60;;;;;;;18.53;91.56;100970.69;5073151;28;20158;-70
2022/07/25 03:11:19;;;;;;;6.85;4.68;;;;;;;18.57;90.95;100974.66;5072905;28;20531;-70
2022/07/25 03:13:45;;;;;;;8.73;4.60;;;;;;;18.60;90.63;100971.59;5072445;28;20047;-71
2022/07/25 03:16:10;;;;;;;8.35;4.60;;;;;;;18.63;89.20;100973.91;5073060;28;20020;-70
2022/07/25 03:18:36;;;;;;;9.48;5.25;;;;;;;18.65;88.17;100964.59;5072715;28;20033;-70
2022/07/25 03:21:01;;;;;;;7.25;4.63;;;;;;;18.69;87.43;100967.78;5073258;28;20032;-70
2022/07/25 03:23:27;;;;;;;12.52;5.47;;;;;;;18.71;87.03;100963.03;5073089;28;20029;-70
2022/07/25 03:25:53;;;;;;;14.32;5.53;;;;;;;18.75;86.24;100964.31;5071934;28;20045;-71
2022/07/25 03:28:19;;;;;;;14.48;5.60;;;;;;;18.83;84.54;100966.88;5071940;28;20036;-70
2022/07/25 03:30:44;;;;;;;8.48;5.25;;;;;;;18.89;84.03;100968.03;5071667;28;20464;-70
2022/07/25 03:33:10;;;;;;;8.73;5.53;;;;;;;18.97;82.66;100957.13;5072775;28;20024;-70
2022/07/25 03:35:38;;;;;;;11.73;4.80;;;;;;;19.03;82.06;100953.66;5072781;28;20068;-70
2022/07/25 03:38:04;;;;;;;9.23;4.85;;;;;;;19.05;81.74;100960.72;5072611;28;20047;-70
2022/07/25 03:40:30;;;;;;;9.43;4.97;;;;;;;19.03;81.68;100967.16;5072649;28;20032;-71
2022/07/25 03:42:56;;;;;;;7.45;4.50;;;;;;;19.02;81.80;100959.25;5072517;28;20074;-71
2022/07/25 03:45:21;;;;;;;7.95;4.43;;;;;;;18.99;81.90;100962.34;5072261;28;20037;-71
2022/07/25 03:47:46;;;;;;;9.10;4.63;;;;;;;18.96;82.07;100960.00;5072490;28;20075;-70
2022/07/25 03:50:12;;;;;;;7.75;5.03;;;;;;;18.92;82.86;100962.25;5072362;28;20056;-70
2022/07/25 03:52:37;;;;;;;5.53;3.92;;;;;;;18.94;82.17;100970.13;5072573;28;20359;-70
2022/07/25 03:55:07;;;;;;;5.18;4.05;;;;;;;18.97;81.22;100958.97;5072351;28;20033;-71
2022/07/25 03:57:32;;;;;;;7.85;4.13;;;;;;;19.00;81.05;100961.28;5072511;28;20424;-70
2022/07/25 03:59:58;;;;;;;9.75;4.30;;;;;;;19.03;80.63;100967.16;5072133;28;20036;-71
2022/07/25 04:02:23;;;;;;;6.00;4.38;;;;;;;19.06;80.56;100954.28;5072174;28;20443;-71
2022/07/25 04:04:49;;;;;;;9.50;4.25;;;;;;;19.06;80.46;100944.34;5072509;28;20030;-71
2022/07/25 04:07:14;;;;;;;8.40;3.70;;;;;;;19.08;80.44;100950.38;5072791;28;20033;-70
2022/07/25 04:09:39;;;;;;;4.72;3.70;;;;;;;19.10;80.01;100948.31;5072402;28;20367;-70
2022/07/25 04:12:05;;;;;;;7.68;3.75;;;;;;;19.11;79.82;100949.16;5072155;28;20154;-70
2022/07/25 04:14:30;;;;;;;7.93;3.75;;;;;;;19.09;80.27;100949.34;5072599;28;20028;-70
2022/07/25 04:16:56;;;;;;;6.82;3.50;;;;;;;19.06;81.12;100957.00;5072543;28;20033;-70
2022/07/25 04:19:21;;;;;;;7.97;3.45;;;;;;;19.02;80.98;100945.78;5071062;28;20389;-70
2022/07/25 04:21:46;;;;;;;7.70;3.60;;;;;;;19.01;81.21;100944.91;5072454;28;20025;-70
2022/07/25 04:24:12;;;;;;;6.28;3.10;;;;;;;19.03;80.87;100942.88;5072165;28;20032;-70
2022/07/25 04:26:37;;;;;;;4.03;3.00;;;;;;;19.11;80.76;100946.44;5072223;28;20024;-70
2022/07/25 04:29:03;;;;;;;3.50;2.70;;;;;;;19.14;80.40;100938.00;5072065;28;20417;-71
2022/07/25 04:31:28;;;;;;;4.30;2.63;;;;;;;19.19;80.55;100935.53;5072635;28;20351;-71
2022/07/25 04:33:54;;;;;;;4.43;2.30;;;;;;;19.27;80.25;100942.66;5071874;28;20367;-71
2022/07/25 04:36:19;;;;;;;6.53;2.47;;;;;;;19.35;79.90;100937.16;5072042;28;20056;-70
2022/07/25 04:38:45;;;;;;;5.32;2.60;;;;;;;19.45;79.41;100928.69;5075755;28;20036;-70
2022/07/25 04:41:10;;;;;;;6.75;2.10;;;;;;;19.55;79.00;100932.72;5075649;28;20543;-71
2022/07/25 04:43:35;;;;;;;3.95;2.13;;;;;;;19.63;78.48;100934.47;5075631;28;20135;-70
2022/07/25 04:46:01;;;;;;;5.55;2.20;;;;;;;19.70;77.58;100940.72;5075485;28;20117;-70
2022/07/25 04:48:27;;;;;;;4.35;2.30;;;;;;;19.79;77.50;100949.53;5074997;28;20438;-70
2022/07/25 04:50:52;;;;;;;2.83;1.92;;;;;;;19.86;75.24;100939.63;5075651;28;20067;-70
2022/07/25 04:53:18;;;;;;;2.08;1.70;;;;;;;19.96;73.60;100949.22;5074234;28;20039;-70
2022/07/25 04:55:43;;;;;;;2.35;2.00;;;;;;;20.06;72.95;100933.50;5075152;28;20031;-70
2022/07/25 04:58:09;;;;;;;2.40;1.60;;;;;;;20.15;71.01;100931.47;5075625;28;20025;-71
2022/07/25 05:00:34;;;;;;;1.65;1.55;;;;;;;20.20;69.24;100934.41;5075453;28;20040;-70
2022/07/25 05:02:59;;;;;;;1.85;1.60;;;;;;;20.23;68.66;100936.72;5075349;28;20043;-71
2022/07/25 05:05:25;;;;;;;5.15;2.00;;;;;;;20.24;68.92;100933.81;5075341;28;20360;-70
2022/07/25 05:07:59;;;;;;;1.75;1.65;;;;;;;20.25;67.85;100951.66;5075219;28;20477;-70
2022/07/25 05:10:26;;;;;;;4.57;1.48;;;;;;;20.27;67.78;100951.47;5075459;28;20386;-71
2022/07/25 05:12:52;;;;;;;7.35;1.42;;;;;;;20.31;67.29;100944.63;5074780;28;20055;-72
2022/07/25 05:15:17;;;;;;;4.95;1.45;;;;;;;20.34;67.77;100944.22;5075281;28;20032;-71
2022/07/25 05:17:43;;;;;;;2.10;1.40;;;;;;;20.41;67.26;100938.88;5075172;28;20035;-71
2022/07/25 05:20:09;;;;;;;3.40;1.60;;;;;;;20.47;67.85;100942.59;5074953;28;20036;-70
2022/07/25 05:22:35;;;;;;;3.90;1.70;;;;;;;20.52;68.45;100953.66;5074312;28;20044;-71
2022/07/25 05:25:01;;;;;;;3.38;1.45;;;;;;;20.57;69.36;100961.97;5075365;28;20040;-72
2022/07/25 05:27:27;;;;;;;2.53;1.60;;;;;;;20.59;70.68;100963.47;5075048;28;20033;-72
2022/07/25 05:29:52;;;;;;;2.60;1.40;;;;;;;20.64;72.19;100967.44;5074659;28;20367;-70
2022/07/25 05:32:18;;;;;;;8.20;1.80;;;;;;;20.63;74.06;100957.66;5074577;28;20047;-71
2022/07/25 05:34:44;;;;;;;4.35;1.90;;;;;;;20.63;75.97;100955.78;5075176;28;20055;-70
2022/07/25 05:37:10;;;;;;;5.38;1.80;;;;;;;20.62;76.57;100956.81;5073091;28;20371;-72
2022/07/25 05:39:38;;;;;;;1.90;1.30;;;;;;;20.65;77.59;100955.59;5074609;28;20055;-71
2022/07/25 05:42:04;;;;;;;4.05;1.52;;;;;;;20.68;78.09;100961.44;5074862;28;20116;-71
2022/07/25 05:44:29;;;;;;;6.10;1.58;;;;;;;20.68;78.74;100957.91;5074308;28;20103;-72
2022/07/25 05:46:55;;;;;;;4.70;2.35;;;;;;;20.61;79.18;100955.16;5074582;28;20079;-70
2022/07/25 05:49:20;;;;;;;4.80;1.80;;;;;;;20.56;79.45;100960.34;5073325;28;20068;-70
2022/07/25 05:51:45;;;;;;;4.95;2.05;;;;;;;20.53;80.22;100961.56;5074515;28;20058;-70
2022/07/25 05:54:11;;;;;;;6.18;1.70;;;;;;;20.50;81.00;100970.09;5074102;28;20032;-70
2022/07/25 05:56:36;;;;;;;7.47;1.85;;;;;;;20.51;81.15;100960.09;5074351;28;20033;-71
2022/07/25 05:59:02;;;;;;;10.23;1.70;;;;;;;20.50;81.90;100959.28;5074235;28;20028;-71
2022/07/25 06:01:27;;;;;;;9.82;1.73;;;;;;;20.47;81.91;100962.38;5074075;28;20378;-70
2022/07/25 06:03:53;;;;;;;6.95;1.77;;;;;;;20.44;82.47;100979.00;5074290;28;20032;-70
2022/07/25 06:06:18;;;;;;;6.82;1.90;;;;;;;20.34;82.68;100957.75;5073900;28;20061;-70
2022/07/25 06:08:43;;;;;;;7.30;1.80;;;;;;;20.25;83.61;100948.16;5073738;28;20034;-71
2022/07/25 06:11:09;;;;;;;5.88;1.70;;;;;;;20.14;85.07;100954.94;5073954;28;20115;-70
2022/07/25 06:13:34;;;;;;;5.10;1.88;;;;;;;19.97;87.41;100948.19;5074145;28;20052;-71
2022/07/25 06:16:00;;;;;;;9.35;2.25;;;;;;;19.89;89.14;100962.69;5073550;28;20020;-70
2022/07/25 06:18:26;;;;;;;7.80;2.08;;;;;;;19.80;89.90;100964.72;5074019;28;20437;-70
2022/07/25 06:20:51;;;;;;;7.70;2.30;;;;;;;19.77;90.20;100959.66;5073833;28;20032;-71
2022/07/25 06:23:18;;;;;;;4.90;1.75;;;;;;;19.79;89.46;100956.81;5073781;28;20046;-70
2022/07/25 06:25:44;;;;;;;7.85;1.70;;;;;;;19.84;90.60;100954.34;5073817;28;20028;-71
2022/07/25 06:28:09;;;;;;;6.75;1.65;;;;;;;19.93;90.10;100958.56;5073517;28;20032;-70
2022/07/25 06:30:35;;;;;;;2.53;1.40;;;;;;;19.97;89.35;100954.41;5073618;28;20036;-71
2022/07/25 06:33:00;;;;;;;7.30;1.70;;;;;;;20.03;88.98;100950.09;5073689;28;20029;-71
2022/07/25 06:35:25;;;;;;;8.73;1.80;;;;;;;20.10;87.79;100956.38;5073261;28;20157;-70
2022/07/25 06:37:51;;;;;;;6.72;2.35;;;;;;;20.15;88.35;100962.00;5072577;28;20077;-71
2022/07/25 06:40:16;;;;;;;6.53;1.80;;;;;;;20.18;88.59;100955.38;5073450;28;20474;-71
2022/07/25 06:42:43;;;;;;;6.78;1.85;;;;;;;20.20;87.90;100953.31;5073533;28;20065;-72
2022/07/25 06:45:10;;;;;;;7.03;1.55;;;;;;;20.32;87.00;100948.16;5073875;28;20117;-71
2022/07/25 06:47:37;;;;;;;6.95;1.73;;;;;;;20.44;86.88;100958.19;5073566;28;20470;-72
2022/07/25 06:50:05;;;;;;;4.80;1.73;;;;;;;20.58;86.29;100956.38;5073422;28;20036;-71
2022/07/25 06:52:30;;;;;;;5.72;1.73;;;;;;;20.65;85.10;100969.94;5073317;28;20033;-71
2022/07/25 06:54:56;;;;;;;6.90;1.80;;;;;;;20.73;84.97;100972.47;5073764;28;20474;-72
2022/07/25 06:57:21;;;;;;;10.43;1.80;;;;;;;20.70;84.38;100974.75;5073503;28;20047;-72
2022/07/25 06:59:47;;;;;;;7.30;1.77;;;;;;;20.60;84.35;100966.97;5073710;28;20028;-72
2022/07/25 07:02:12;;;;;;;9.48;2.05;;;;;;;20.50;84.80;100970.09;5071862;28;20024;-75
2022/07/25 07:04:38;;;;;;;14.38;2.13;;;;;;;20.26;86.62;100980.34;5072014;28;20038;-73
2022/07/25 07:07:03;;;;;;;10.07;2.00;;;;;;;20.17;87.63;100980.72;5072804;28;20040;-72
2022/07/25 07:09:29;;;;;;;4.88;1.70;;;;;;;20.13;87.85;100971.34;5072639;28;20029;-73
2022/07/25 07:11:54;;;;;;;5.30;1.88;;;;;;;20.11;88.21;100976.09;5072477;28;20505;-74
2022/07/25 07:14:20;;;;;;;9.95;2.05;;;;;;;20.05;88.82;100973.19;5072932;28;20035;-74
2022/07/25 07:16:45;;;;;;;7.68;2.17;;;;;;;20.11;88.58;100982.38;5073073;28;20028;-74
2022/07/25 07:19:10;;;;;;;6.00;1.88;;;;;;;20.28;87.37;100985.56;5073683;28;20104;-72
2022/07/25 07:21:36;;;;;;;7.00;1.77;;;;;;;20.36;87.18;100974.59;5072638;28;20036;-74
2022/07/25 07:24:02;;;;;;;8.57;1.80;;;;;;;20.52;85.92;100969.88;5072537;28;20028;-74
2022/07/25 07:26:27;;;;;;;8.80;2.10;;;;;;;20.70;84.84;100967.47;5072552;28;20032;-73
2022/07/25 07:28:53;;;;;;;5.50;1.98;;;;;;;20.81;84.45;100973.31;5072354;28;20056;-74
2022/07/25 07:31:19;;;;;;;9.73;2.08;;;;;;;20.92;84.07;100978.97;5071139;28;20025;-73
2022/07/25 07:33:44;;;;;;;8.23;1.85;;;;;;;21.00;83.51;100979.84;5072461;28;20082;-72
2022/07/25 07:36:10;;;;;;;7.95;2.22;;;;;;;21.08;82.75;100974.25;5072390;28;20029;-74
2022/07/25 07:38:35;;;;;;;9.32;2.70;;;;;;;21.14;81.12;100979.66;5072529;28;20114;-73
2022/07/25 07:41:01;;;;;;;4.88;2.13;;;;;;;21.04;81.70;100975.69;5071263;28;20399;-74
2022/07/25 07:43:28;;;;;;;5.32;1.60;;;;;;;21.10;81.28;100981.09;5071225;28;20035;-74
2022/07/25 07:45:54;;;;;;;11.05;1.92;;;;;;;21.33;80.83;100976.34;5072559;28;20382;-75
2022/07/25 07:48:20;;;;;;;6.47;2.22;;;;;;;21.53;79.35;100968.25;5072292;28;20024;-74
2022/07/25 07:50:45;;;;;;;7.32;1.98;;;;;;;21.84;78.85;100962.22;5072885;28;20047;-76
2022/07/25 07:53:10;;;;;;;6.13;1.70;;;;;;;22.17;75.68;100951.28;5072521;28;20060;-78
2022/07/25 07:55:47;;;;;;;9.85;2.55;;;;;;;22.48;74.66;100963.31;5072773;28;20473;-75
2022/07/25 07:58:17;;;;;;;8.25;1.77;;;;;;;22.93;71.82;100969.72;5073181;28;20091;-74
2022/07/25 08:00:44;;;;;;;8.77;1.70;;;;;;;23.13;69.95;100959.63;5071081;28;20033;-77
2022/07/25 08:03:10;;;;;;;6.88;1.92;;;;;;;23.16;68.63;100961.88;5073160;28;20274;-75
2022/07/25 08:05:40;;;;;;;10.07;2.75;;;;;;;23.18;68.51;100956.25;5070851;28;20032;-76
2022/07/25 08:08:07;;;;;;;8.13;2.10;;;;;;;23.32;66.30;100946.97;5072397;28;20043;-77
2022/07/25 08:10:35;;;;;;;8.50;2.10;;;;;;;23.56;64.81;100947.19;5072160;28;20032;-78
2022/07/25 08:13:15;;;;;;;5.43;1.90;;;;;;;23.86;63.87;100950.03;5075220;28;20067;-79
2022/07/25 08:15:42;;;;;;;6.80;1.63;;;;;;;24.33;65.03;100957.66;5076314;28;20412;-77
2022/07/25 08:18:07;;;;;;;6.20;1.70;;;;;;;24.83;62.34;100970.25;5076541;28;20033;-77
2022/07/25 08:20:33;;;;;;;6.55;1.50;;;;;;;24.98;59.63;100962.47;5075515;28;20123;-78
2022/07/25 08:22:58;;;;;;;10.32;1.80;;;;;;;24.96;60.24;100967.34;5076116;28;20358;-81
2022/07/25 08:25:24;;;;;;;6.85;1.65;;;;;;;24.83;60.57;100978.41;5077307;28;20442;-78
2022/07/25 08:27:49;;;;;;;3.72;1.67;;;;;;;24.52;60.80;100977.50;5076130;28;20036;-83
2022/07/25 08:30:16;;;;;;;9.82;2.28;;;;;;;24.34;62.09;100980.25;5076289;28;20430;-75
2022/07/25 08:32:47;;;;;;;11.93;1.95;;;;;;;24.20;62.43;100972.25;5076250;28;20028;-78
2022/07/25 08:35:12;;;;;;;9.93;1.73;;;;;;;24.03;61.28;100985.59;5076222;28;20072;-81
2022/07/25 08:37:38;;;;;;;10.88;2.35;;;;;;;23.74;62.93;100985.22;5076114;28;20036;-82
2022/07/25 08:40:04;;;;;;;6.55;1.90;;;;;;;23.54;63.54;100984.56;5075758;28;20340;-76
2022/07/25 08:42:32;;;;;;;10.30;2.15;;;;;;;23.36;63.72;100982.63;5076564;28;20045;-77
2022/07/25 08:45:01;;;;;;;8.20;1.95;;;;;;;23.15;64.08;100975.69;5075997;28;20028;-77
2022/07/25 08:47:28;;;;;;;9.50;2.03;;;;;;;23.02;65.30;100985.56;5076447;28;20039;-78
2022/07/25 08:49:54;;;;;;;5.03;1.80;;;;;;;22.89;66.85;100988.34;5075037;28;20040;-76
2022/07/25 08:52:20;;;;;;;9.27;2.25;;;;;;;22.95;67.78;100983.94;5075810;28;20044;-76
2022/07/25 08:54:46;;;;;;;6.35;2.45;;;;;;;22.97;67.18;100984.53;5075429;28;20090;-76
2022/07/25 08:57:12;;;;;;;28.88;5.07;;;;;;;22.92;68.10;100979.75;5075747;28;20028;-74
2022/07/25 08:59:37;;;;;;;10.25;2.10;;;;;;;22.74;67.75;100977.78;5075330;28;20033;-74
2022/07/25 09:02:06;;;;;;;9.88;2.22;;;;;;;22.85;67.47;100981.69;5075705;28;20055;-79
2022/07/25 09:04:35;;;;;;;20.30;2.55;;;;;;;22.87;67.79;100977.69;5074977;28;20451;-76
2022/07/25 09:07:03;;;;;;;963.17;149.95;;;;;;;22.68;66.59;100984.06;5075191;28;20094;-74
2022/07/25 09:09:37;;;;;;;63.97;6.82;;;;;;;22.50;67.07;100982.88;5075175;28;20029;-76
2022/07/25 09:12:03;;;;;;;11.32;2.53;;;;;;;22.38;67.31;100986.47;5073863;28;20032;-78
2022/07/25 09:14:29;;;;;;;12.07;2.10;;;;;;;22.32;67.12;100990.88;5076280;28;20422;-83
2022/07/25 09:16:55;;;;;;;9.40;2.25;;;;;;;22.28;67.40;101005.88;5075910;28;20032;-77
2022/07/25 09:19:23;;;;;;;11.05;2.40;;;;;;;22.18;67.71;100996.31;5075258;28;20537;-75
2022/07/25 09:22:02;;;;;;;17.73;3.03;;;;;;;22.00;69.11;101005.09;5074863;28;20035;-75
2022/07/25 09:24:28;;;;;;;17.50;3.10;;;;;;;21.94;69.16;101010.50;5074031;28;20371;-76
2022/07/25 09:26:56;;;;;;;14.52;2.70;;;;;;;21.95;70.35;101031.16;5074852;28;20466;-74
2022/07/25 09:29:30;;;;;;;15.90;3.15;;;;;;;22.17;68.83;101024.44;5074909;28;20037;-75
2022/07/25 09:31:57;;;;;;;12.05;2.53;;;;;;;22.35;66.77;101015.66;5075389;28;20033;-74
2022/07/25 09:34:37;;;;;;;13.52;2.65;;;;;;;22.33;67.42;101008.78;5073537;28;20353;-76
2022/07/25 09:37:04;;;;;;;12.90;2.37;;;;;;;22.93;65.44;101018.56;5073565;28;20021;-76
2022/07/25 09:39:37;;;;;;;9.82;2.72;;;;;;;23.75;62.14;101026.78;5074074;28;20331;-75
2022/07/25 09:42:17;;;;;;;9.65;2.72;;;;;;;23.99;60.07;101021.59;5074958;28;20025;-74
2022/07/25 09:44:43;;;;;;;7.30;2.78;;;;;;;23.70;61.72;101019.31;5073854;28;20422;-74
2022/07/25 09:47:11;;;;;;;12.20;2.72;;;;;;;23.97;60.82;101016.38;5073125;28;20036;-75
2022/07/25 09:49:44;;;;;;;11.25;2.67;;;;;;;24.25;59.26;100999.56;5074007;28;20371;-75
2022/07/25 09:52:10;;;;;;;11.40;2.90;;;;;;;25.62;56.23;101021.84;5075002;28;20174;-75
2022/07/25 09:54:37;;;;;;;13.65;3.00;;;;;;;26.53;52.42;101029.63;5074399;28;20469;-77
2022/07/25 09:57:02;;;;;;;8.70;2.97;;;;;;;26.85;51.48;101022.91;5074680;28;20115;-77
2022/07/25 09:59:28;;;;;;;12.68;3.17;;;;;;;26.27;52.40;101041.06;5074829;28;20433;-75
2022/07/25 10:02:22;;;;;;;18.15;3.28;;;;;;;25.17;55.02;101047.63;5074273;28;20032;-76
2022/07/25 10:05:13;;;;;;;9.55;2.80;;;;;;;23.84;58.24;101044.50;5074494;28;20029;-73
2022/07/25 10:07:43;;;;;;;11.15;2.88;;;;;;;23.30;60.73;101043.22;5064167;28;20036;-71
2022/07/25 10:10:20;;;;;;;14.20;3.42;;;;;;;23.35;61.79;101035.28;5075078;28;20118;-70
2022/07/25 10:13:09;;;;;;;16.48;3.20;;;;;;;23.46;60.41;101042.69;5073129;28;20056;-71
2022/07/25 10:15:53;;;;;;;13.45;3.50;;;;;;;23.48;60.40;101043.28;5074636;28;20119;-72
2022/07/25 10:18:21;;;;;;;14.85;3.22;;;;;;;23.22;59.41;101053.28;5074732;28;20074;-69
2022/07/25 10:20:48;;;;;;;11.57;3.00;;;;;;;22.67;61.68;101050.19;5074491;28;20343;-71
2022/07/25 10:23:25;;;;;;;12.05;3.20;;;;;;;22.56;63.40;101048.13;5074212;28;20029;-71
2022/07/25 10:26:12;;;;;;;13.38;3.25;;;;;;;22.94;62.90;101055.50;5074083;28;20044;-73
2022/07/25 10:28:45;;;;;;;15.70;2.80;;;;;;;23.76;61.83;101058.34;5073772;28;20036;-73
2022/07/25 10:31:20;;;;;;;16.33;3.17;;;;;;;24.41;58.63;101063.41;5074029;28;20033;-71
2022/07/25 10:33:57;;;;;;;11.98;2.83;;;;;;;24.90;55.31;101057.22;5074116;28;20036;-69
2022/07/25 10:36:24;;;;;;;15.05;3.45;;;;;;;25.02;54.67;101062.72;5073786;28;20312;-69
2022/07/25 10:38:51;;;;;;;11.55;2.85;;;;;;;25.17;54.54;101074.03;5072358;28;20039;-70
2022/07/25 10:41:17;;;;;;;10.43;2.75;;;;;;;24.82;53.79;101070.06;5074168;28;20155;-71
2022/07/25 10:43:45;;;;;;;13.93;2.85;;;;;;;24.23;54.49;101071.53;5073373;28;20039;-72
2022/07/25 10:46:19;;;;;;;10.52;2.78;;;;;;;24.43;55.15;101065.91;5073685;28;20408;-72
2022/07/25 10:48:55;;;;;;;10.35;2.97;;;;;;;24.50;55.77;101073.97;5073823;28;20025;-72
2022/07/25 10:51:26;;;;;;;13.85;2.83;;;;;;;24.29;57.33;101066.03;5073828;28;20086;-71
2022/07/25 10:53:51;;;;;;;10.75;2.70;;;;;;;23.93;57.46;101070.34;5073500;28;20029;-71
2022/07/25 10:56:19;;;;;;;11.48;2.53;;;;;;;23.68;58.71;101080.38;5073409;28;20141;-70
2022/07/25 10:58:47;;;;;;;15.95;3.00;;;;;;;23.45;58.84;101070.06;5073099;28;20464;-71
2022/07/25 11:01:13;;;;;;;11.57;3.40;;;;;;;23.52;60.29;101081.72;5073605;28;20106;-72
2022/07/25 11:03:41;;;;;;;12.48;3.08;;;;;;;23.23;59.93;101092.97;5073341;28;20024;-70
2022/07/25 11:06:06;;;;;;;9.60;2.70;;;;;;;22.80;60.02;101087.28;5073244;28;20165;-69
2022/07/25 11:08:34;;;;;;;17.85;3.70;;;;;;;22.88;61.00;101078.88;5073687;28;20476;-72
2022/07/25 11:11:00;;;;;;;15.85;3.58;;;;;;;23.26;61.86;101078.13;5072231;28;20036;-72
2022/07/25 11:13:25;;;;;;;13.18;2.83;;;;;;;23.29;60.63;101093.13;5073122;28;20056;-70
2022/07/25 11:15:55;;;;;;;12.65;3.30;;;;;;;22.98;59.92;101086.59;5073169;28;20036;-71
2022/07/25 11:18:39;;;;;;;11.55;2.63;;;;;;;22.76;60.72;101095.00;5073637;28;20152;-70
2022/07/25 11:21:08;;;;;;;12.40;3.20;;;;;;;22.46;62.13;101095.50;5073644;28;20035;-69
2022/07/25 11:23:35;;;;;;;13.73;2.83;;;;;;;22.14;62.74;101100.72;5071715;28;20082;-71